sensor_id;sensor_type;location;lat;lon;timestamp;P1;durP1;ratioP1;P2;durP2;ratioP2
8564;SDS011;4320;51.498;6.556;2023-12-20T00:00:51;29.10;;;14.00;;
8564;SDS011;4320;51.498;6.556;2023-12-20T00:03:17;28.10;;;14.02;;
8564;SDS011;4320;51.498;6.556;2023-12-20T00:05:42;21.77;;;11.57;;
8564;SDS011;4320;51.498;6.556;2023-12-20T00:08:08;27.15;;;14.57;;
8564;SDS011;4320;51.498;6.556;2023-12-20T00:10:34;30.45;;;13.18;;
8564;SDS011;4320;51.498;6.556;2023-12-20T00:13:00;23.40;;;12.27;;
8564;SDS011;4320;51.498;6.556;2023-12-20T00:15:26;30.23;;;12.63;;
8564;SDS011;4320;51.498;6.556;2023-12-20T00:17:51;22.52;;;12.77;;
8564;SDS011;4320;51.498;6.556;2023-12-20T00:20:17;27.73;;;13.65;;
8564;SDS011;4320;51.498;6.556;2023-12-20T00:22:42;26.52;;;13.85;;
8564;SDS011;4320;51.498;6.556;2023-12-20T00:25:08;21.38;;;11.90;;
8564;SDS011;4320;51.498;6.556;2023-12-20T00:27:34;24.90;;;11.82;;
8564;SDS011;4320;51.498;6.556;2023-12-20T00:29:59;31.08;;;14.63;;
8564;SDS011;4320;51.498;6.556;2023-12-20T00:32:25;34.78;;;16.67;;
8564;SDS011;4320;51.498;6.556;2023-12-20T00:34:51;24.83;;;12.52;;
8564;SDS011;4320;51.498;6.556;2023-12-20T00:37:16;31.35;;;14.23;;
8564;SDS011;4320;51.498;6.556;2023-12-20T00:39:42;25.90;;;11.50;;
8564;SDS011;4320;51.498;6.556;2023-12-20T00:42:07;16.63;;;10.93;;
8564;SDS011;4320;51.498;6.556;2023-12-20T00:44:33;18.70;;;10.52;;
8564;SDS011;4320;51.498;6.556;2023-12-20T00:46:58;20.90;;;10.20;;
8564;SDS011;4320;51.498;6.556;2023-12-20T00:49:24;19.35;;;10.18;;
8564;SDS011;4320;51.498;6.556;2023-12-20T00:51:50;21.40;;;10.85;;
8564;SDS011;4320;51.498;6.556;2023-12-20T00:54:17;17.30;;;10.18;;
8564;SDS011;4320;51.498;6.556;2023-12-20T00:56:43;17.80;;;9.85;;
8564;SDS011;4320;51.498;6.556;2023-12-20T00:59:09;18.80;;;10.95;;
8564;SDS011;4320;51.498;6.556;2023-12-20T01:01:34;20.35;;;11.32;;
8564;SDS011;4320;51.498;6.556;2023-12-20T01:04:00;21.02;;;11.60;;
8564;SDS011;4320;51.498;6.556;2023-12-20T01:06:25;20.33;;;11.57;;
8564;SDS011;4320;51.498;6.556;2023-12-20T01:08:51;19.95;;;11.18;;
8564;SDS011;4320;51.498;6.556;2023-12-20T01:11:17;26.10;;;10.55;;
8564;SDS011;4320;51.498;6.556;2023-12-20T01:13:42;27.02;;;11.50;;
8564;SDS011;4320;51.498;6.556;2023-12-20T01:16:09;21.70;;;11.50;;
8564;SDS011;4320;51.498;6.556;2023-12-20T01:18:36;16.88;;;8.70;;
8564;SDS011;4320;51.498;6.556;2023-12-20T01:21:02;15.82;;;8.95;;
8564;SDS011;4320;51.498;6.556;2023-12-20T01:23:28;19.25;;;8.60;;
8564;SDS011;4320;51.498;6.556;2023-12-20T01:25:54;17.23;;;8.43;;
8564;SDS011;4320;51.498;6.556;2023-12-20T01:28:20;26.35;;;8.93;;
8564;SDS011;4320;51.498;6.556;2023-12-20T01:30:45;15.52;;;8.63;;
8564;SDS011;4320;51.498;6.556;2023-12-20T01:33:11;17.73;;;9.10;;
8564;SDS011;4320;51.498;6.556;2023-12-20T01:35:38;18.13;;;9.32;;
8564;SDS011;4320;51.498;6.556;2023-12-20T01:38:03;16.52;;;8.50;;
8564;SDS011;4320;51.498;6.556;2023-12-20T01:40:29;18.02;;;8.95;;
8564;SDS011;4320;51.498;6.556;2023-12-20T01:43:01;17.23;;;9.38;;
8564;SDS011;4320;51.498;6.556;2023-12-20T01:45:31;18.13;;;8.82;;
8564;SDS011;4320;51.498;6.556;2023-12-20T01:47:57;18.83;;;8.75;;
8564;SDS011;4320;51.498;6.556;2023-12-20T01:50:23;15.75;;;8.32;;
8564;SDS011;4320;51.498;6.556;2023-12-20T01:52:49;16.83;;;8.60;;
8564;SDS011;4320;51.498;6.556;2023-12-20T01:55:17;23.63;;;10.25;;
8564;SDS011;4320;51.498;6.556;2023-12-20T01:57:44;22.70;;;9.13;;
8564;SDS011;4320;51.498;6.556;2023-12-20T02:00:12;24.33;;;9.68;;
8564;SDS011;4320;51.498;6.556;2023-12-20T02:02:39;22.30;;;9.07;;
8564;SDS011;4320;51.498;6.556;2023-12-20T02:05:05;17.17;;;7.93;;
8564;SDS011;4320;51.498;6.556;2023-12-20T02:07:32;15.43;;;8.30;;
8564;SDS011;4320;51.498;6.556;2023-12-20T02:09:59;17.63;;;8.60;;
8564;SDS011;4320;51.498;6.556;2023-12-20T02:12:26;21.92;;;7.78;;
8564;SDS011;4320;51.498;6.556;2023-12-20T02:14:51;15.18;;;7.70;;
8564;SDS011;4320;51.498;6.556;2023-12-20T02:17:17;21.38;;;7.00;;
8564;SDS011;4320;51.498;6.556;2023-12-20T02:19:43;20.40;;;7.57;;
8564;SDS011;4320;51.498;6.556;2023-12-20T02:22:11;19.42;;;7.13;;
8564;SDS011;4320;51.498;6.556;2023-12-20T02:24:37;19.95;;;8.27;;
8564;SDS011;4320;51.498;6.556;2023-12-20T02:27:04;17.25;;;7.15;;
8564;SDS011;4320;51.498;6.556;2023-12-20T02:29:31;13.98;;;6.78;;
8564;SDS011;4320;51.498;6.556;2023-12-20T02:32:00;15.98;;;5.88;;
8564;SDS011;4320;51.498;6.556;2023-12-20T02:34:26;13.85;;;6.40;;
8564;SDS011;4320;51.498;6.556;2023-12-20T02:36:52;20.90;;;6.30;;
8564;SDS011;4320;51.498;6.556;2023-12-20T02:39:18;14.02;;;4.90;;
8564;SDS011;4320;51.498;6.556;2023-12-20T02:41:44;15.20;;;5.10;;
8564;SDS011;4320;51.498;6.556;2023-12-20T02:44:10;10.48;;;5.03;;
8564;SDS011;4320;51.498;6.556;2023-12-20T02:46:35;15.80;;;4.55;;
8564;SDS011;4320;51.498;6.556;2023-12-20T02:49:01;13.10;;;4.80;;
8564;SDS011;4320;51.498;6.556;2023-12-20T02:51:26;13.23;;;4.20;;
8564;SDS011;4320;51.498;6.556;2023-12-20T02:53:52;16.25;;;4.85;;
8564;SDS011;4320;51.498;6.556;2023-12-20T02:56:18;6.93;;;3.38;;
8564;SDS011;4320;51.498;6.556;2023-12-20T02:58:43;14.77;;;3.90;;
8564;SDS011;4320;51.498;6.556;2023-12-20T03:01:09;17.08;;;4.47;;
8564;SDS011;4320;51.498;6.556;2023-12-20T03:03:34;15.50;;;3.70;;
8564;SDS011;4320;51.498;6.556;2023-12-20T03:06:00;9.63;;;3.20;;
8564;SDS011;4320;51.498;6.556;2023-12-20T03:08:26;12.65;;;4.03;;
8564;SDS011;4320;51.498;6.556;2023-12-20T03:10:51;11.05;;;3.15;;
8564;SDS011;4320;51.498;6.556;2023-12-20T03:13:18;11.15;;;3.88;;
8564;SDS011;4320;51.498;6.556;2023-12-20T03:15:44;14.18;;;3.92;;
8564;SDS011;4320;51.498;6.556;2023-12-20T03:18:10;15.77;;;3.60;;
8564;SDS011;4320;51.498;6.556;2023-12-20T03:20:36;14.77;;;3.38;;
8564;SDS011;4320;51.498;6.556;2023-12-20T03:23:01;12.20;;;3.50;;
8564;SDS011;4320;51.498;6.556;2023-12-20T03:25:27;16.20;;;3.97;;
8564;SDS011;4320;51.498;6.556;2023-12-20T03:27:53;12.90;;;3.35;;
8564;SDS011;4320;51.498;6.556;2023-12-20T03:30:19;15.38;;;4.05;;
8564;SDS011;4320;51.498;6.556;2023-12-20T03:32:45;12.57;;;3.53;;
8564;SDS011;4320;51.498;6.556;2023-12-20T03:35:10;13.57;;;3.53;;
8564;SDS011;4320;51.498;6.556;2023-12-20T03:37:36;14.65;;;4.63;;
8564;SDS011;4320;51.498;6.556;2023-12-20T03:40:02;14.73;;;3.92;;
8564;SDS011;4320;51.498;6.556;2023-12-20T03:42:28;19.25;;;4.68;;
8564;SDS011;4320;51.498;6.556;2023-12-20T03:44:54;12.95;;;3.50;;
8564;SDS011;4320;51.498;6.556;2023-12-20T03:47:19;11.05;;;4.20;;
8564;SDS011;4320;51.498;6.556;2023-12-20T03:49:45;15.15;;;4.40;;
8564;SDS011;4320;51.498;6.556;2023-12-20T03:52:10;16.35;;;4.20;;
8564;SDS011;4320;51.498;6.556;2023-12-20T03:54:37;12.82;;;3.97;;
8564;SDS011;4320;51.498;6.556;2023-12-20T03:57:03;11.80;;;3.33;;
8564;SDS011;4320;51.498;6.556;2023-12-20T03:59:29;18.67;;;3.65;;
8564;SDS011;4320;51.498;6.556;2023-12-20T04:01:55;17.52;;;3.92;;
8564;SDS011;4320;51.498;6.556;2023-12-20T04:04:21;16.08;;;3.95;;
8564;SDS011;4320;51.498;6.556;2023-12-20T04:06:46;15.30;;;4.07;;
8564;SDS011;4320;51.498;6.556;2023-12-20T04:09:12;11.93;;;3.65;;
8564;SDS011;4320;51.498;6.556;2023-12-20T04:11:38;16.25;;;4.82;;
8564;SDS011;4320;51.498;6.556;2023-12-20T04:14:03;16.08;;;3.90;;
8564;SDS011;4320;51.498;6.556;2023-12-20T04:16:32;10.48;;;3.97;;
8564;SDS011;4320;51.498;6.556;2023-12-20T04:18:57;17.50;;;3.63;;
8564;SDS011;4320;51.498;6.556;2023-12-20T04:21:23;15.82;;;3.95;;
8564;SDS011;4320;51.498;6.556;2023-12-20T04:23:49;21.83;;;4.68;;
8564;SDS011;4320;51.498;6.556;2023-12-20T04:26:14;11.95;;;4.22;;
8564;SDS011;4320;51.498;6.556;2023-12-20T04:28:40;13.77;;;3.97;;
8564;SDS011;4320;51.498;6.556;2023-12-20T04:31:08;15.98;;;4.35;;
8564;SDS011;4320;51.498;6.556;2023-12-20T04:33:33;14.30;;;3.95;;
8564;SDS011;4320;51.498;6.556;2023-12-20T04:35:59;14.27;;;4.22;;
8564;SDS011;4320;51.498;6.556;2023-12-20T04:38:25;15.85;;;3.90;;
8564;SDS011;4320;51.498;6.556;2023-12-20T04:40:51;15.55;;;4.32;;
8564;SDS011;4320;51.498;6.556;2023-12-20T04:43:17;10.73;;;3.83;;
8564;SDS011;4320;51.498;6.556;2023-12-20T04:45:42;14.45;;;4.55;;
8564;SDS011;4320;51.498;6.556;2023-12-20T04:48:08;15.73;;;5.35;;
8564;SDS011;4320;51.498;6.556;2023-12-20T04:50:34;12.02;;;4.60;;
8564;SDS011;4320;51.498;6.556;2023-12-20T04:52:59;13.50;;;4.10;;
8564;SDS011;4320;51.498;6.556;2023-12-20T04:55:25;17.33;;;4.95;;
8564;SDS011;4320;51.498;6.556;2023-12-20T04:57:50;18.13;;;4.80;;
8564;SDS011;4320;51.498;6.556;2023-12-20T05:00:16;12.60;;;4.75;;
8564;SDS011;4320;51.498;6.556;2023-12-20T05:02:42;18.52;;;4.90;;
8564;SDS011;4320;51.498;6.556;2023-12-20T05:05:07;15.25;;;4.40;;
8564;SDS011;4320;51.498;6.556;2023-12-20T05:07:33;15.25;;;5.55;;
8564;SDS011;4320;51.498;6.556;2023-12-20T05:09:59;16.95;;;5.63;;
8564;SDS011;4320;51.498;6.556;2023-12-20T05:12:24;15.13;;;5.38;;
8564;SDS011;4320;51.498;6.556;2023-12-20T05:17:17;15.85;;;5.22;;
8564;SDS011;4320;51.498;6.556;2023-12-20T05:19:42;23.10;;;5.65;;
8564;SDS011;4320;51.498;6.556;2023-12-20T05:22:08;15.35;;;5.90;;
8564;SDS011;4320;51.498;6.556;2023-12-20T05:24:34;16.58;;;5.00;;
8564;SDS011;4320;51.498;6.556;2023-12-20T05:27:00;16.67;;;5.32;;
8564;SDS011;4320;51.498;6.556;2023-12-20T05:29:25;19.77;;;6.22;;
8564;SDS011;4320;51.498;6.556;2023-12-20T05:31:51;15.27;;;5.32;;
8564;SDS011;4320;51.498;6.556;2023-12-20T05:34:17;17.38;;;5.40;;
8564;SDS011;4320;51.498;6.556;2023-12-20T05:36:42;17.98;;;4.68;;
8564;SDS011;4320;51.498;6.556;2023-12-20T05:39:08;15.63;;;5.05;;
8564;SDS011;4320;51.498;6.556;2023-12-20T05:41:33;11.45;;;4.90;;
8564;SDS011;4320;51.498;6.556;2023-12-20T05:43:59;21.70;;;5.78;;
8564;SDS011;4320;51.498;6.556;2023-12-20T05:46:25;17.90;;;5.60;;
8564;SDS011;4320;51.498;6.556;2023-12-20T05:48:51;13.88;;;5.05;;
8564;SDS011;4320;51.498;6.556;2023-12-20T05:51:16;18.80;;;5.85;;
8564;SDS011;4320;51.498;6.556;2023-12-20T05:53:43;13.65;;;5.63;;
8564;SDS011;4320;51.498;6.556;2023-12-20T05:56:09;15.25;;;5.00;;
8564;SDS011;4320;51.498;6.556;2023-12-20T05:58:34;16.40;;;5.13;;
8564;SDS011;4320;51.498;6.556;2023-12-20T06:01:00;21.42;;;5.45;;
8564;SDS011;4320;51.498;6.556;2023-12-20T06:03:28;15.98;;;5.00;;
8564;SDS011;4320;51.498;6.556;2023-12-20T06:05:54;15.13;;;5.15;;
8564;SDS011;4320;51.498;6.556;2023-12-20T06:08:19;12.23;;;5.38;;
8564;SDS011;4320;51.498;6.556;2023-12-20T06:10:45;18.48;;;5.10;;
8564;SDS011;4320;51.498;6.556;2023-12-20T06:13:10;16.92;;;5.20;;
8564;SDS011;4320;51.498;6.556;2023-12-20T06:15:38;15.27;;;6.15;;
8564;SDS011;4320;51.498;6.556;2023-12-20T06:18:07;17.73;;;5.90;;
8564;SDS011;4320;51.498;6.556;2023-12-20T06:20:33;13.07;;;5.35;;
8564;SDS011;4320;51.498;6.556;2023-12-20T06:22:59;19.15;;;6.18;;
8564;SDS011;4320;51.498;6.556;2023-12-20T06:25:24;13.90;;;5.50;;
8564;SDS011;4320;51.498;6.556;2023-12-20T06:27:50;18.70;;;5.60;;
8564;SDS011;4320;51.498;6.556;2023-12-20T06:30:16;14.90;;;5.57;;
8564;SDS011;4320;51.498;6.556;2023-12-20T06:32:42;13.00;;;5.00;;
8564;SDS011;4320;51.498;6.556;2023-12-20T06:35:08;18.70;;;6.65;;
8564;SDS011;4320;51.498;6.556;2023-12-20T06:37:34;17.10;;;5.57;;
8564;SDS011;4320;51.498;6.556;2023-12-20T06:40:00;21.10;;;5.43;;
8564;SDS011;4320;51.498;6.556;2023-12-20T06:42:25;21.85;;;6.90;;
8564;SDS011;4320;51.498;6.556;2023-12-20T06:44:51;16.73;;;5.20;;
8564;SDS011;4320;51.498;6.556;2023-12-20T06:47:17;14.32;;;5.35;;
8564;SDS011;4320;51.498;6.556;2023-12-20T06:49:43;15.50;;;6.15;;
8564;SDS011;4320;51.498;6.556;2023-12-20T06:52:08;14.60;;;5.15;;
8564;SDS011;4320;51.498;6.556;2023-12-20T06:54:34;12.55;;;5.72;;
8564;SDS011;4320;51.498;6.556;2023-12-20T06:56:59;18.00;;;5.57;;
8564;SDS011;4320;51.498;6.556;2023-12-20T06:59:25;11.43;;;5.13;;
8564;SDS011;4320;51.498;6.556;2023-12-20T07:01:51;17.58;;;5.68;;
8564;SDS011;4320;51.498;6.556;2023-12-20T07:04:17;15.57;;;5.32;;
8564;SDS011;4320;51.498;6.556;2023-12-20T07:06:45;19.50;;;5.10;;
8564;SDS011;4320;51.498;6.556;2023-12-20T07:09:12;17.48;;;5.68;;
8564;SDS011;4320;51.498;6.556;2023-12-20T07:11:39;22.95;;;5.53;;
8564;SDS011;4320;51.498;6.556;2023-12-20T07:14:04;16.70;;;5.25;;
8564;SDS011;4320;51.498;6.556;2023-12-20T07:16:30;16.65;;;4.88;;
8564;SDS011;4320;51.498;6.556;2023-12-20T07:18:58;14.85;;;4.82;;
8564;SDS011;4320;51.498;6.556;2023-12-20T07:21:23;21.52;;;5.60;;
8564;SDS011;4320;51.498;6.556;2023-12-20T07:23:49;18.77;;;5.88;;
8564;SDS011;4320;51.498;6.556;2023-12-20T07:26:15;27.92;;;7.57;;
8564;SDS011;4320;51.498;6.556;2023-12-20T07:28:40;24.75;;;6.45;;
8564;SDS011;4320;51.498;6.556;2023-12-20T07:31:06;19.10;;;5.38;;
8564;SDS011;4320;51.498;6.556;2023-12-20T07:33:32;18.92;;;5.50;;
8564;SDS011;4320;51.498;6.556;2023-12-20T07:35:59;10.60;;;5.32;;
8564;SDS011;4320;51.498;6.556;2023-12-20T07:38:24;14.32;;;4.97;;
8564;SDS011;4320;51.498;6.556;2023-12-20T07:40:50;14.27;;;5.63;;
8564;SDS011;4320;51.498;6.556;2023-12-20T07:43:15;11.27;;;5.00;;
8564;SDS011;4320;51.498;6.556;2023-12-20T07:45:41;19.60;;;6.45;;
8564;SDS011;4320;51.498;6.556;2023-12-20T07:48:07;15.88;;;5.10;;
8564;SDS011;4320;51.498;6.556;2023-12-20T07:50:32;18.98;;;5.22;;
8564;SDS011;4320;51.498;6.556;2023-12-20T07:52:58;13.60;;;4.55;;
8564;SDS011;4320;51.498;6.556;2023-12-20T07:55:25;16.65;;;5.00;;
8564;SDS011;4320;51.498;6.556;2023-12-20T07:57:51;17.33;;;5.07;;
8564;SDS011;4320;51.498;6.556;2023-12-20T08:00:17;17.63;;;4.72;;
8564;SDS011;4320;51.498;6.556;2023-12-20T08:02:43;10.18;;;3.63;;
8564;SDS011;4320;51.498;6.556;2023-12-20T08:05:08;20.42;;;4.45;;
8564;SDS011;4320;51.498;6.556;2023-12-20T08:07:34;16.73;;;4.75;;
8564;SDS011;4320;51.498;6.556;2023-12-20T08:10:00;13.65;;;4.07;;
8564;SDS011;4320;51.498;6.556;2023-12-20T08:12:26;13.77;;;4.13;;
8564;SDS011;4320;51.498;6.556;2023-12-20T08:14:52;14.52;;;4.80;;
8564;SDS011;4320;51.498;6.556;2023-12-20T08:17:19;14.02;;;4.97;;
8564;SDS011;4320;51.498;6.556;2023-12-20T08:19:44;17.48;;;4.97;;
8564;SDS011;4320;51.498;6.556;2023-12-20T08:22:10;15.48;;;4.97;;
8564;SDS011;4320;51.498;6.556;2023-12-20T08:24:36;23.48;;;4.55;;
8564;SDS011;4320;51.498;6.556;2023-12-20T08:27:02;10.50;;;3.78;;
8564;SDS011;4320;51.498;6.556;2023-12-20T08:29:29;16.05;;;5.10;;
8564;SDS011;4320;51.498;6.556;2023-12-20T08:31:55;15.60;;;3.88;;
8564;SDS011;4320;51.498;6.556;2023-12-20T08:34:21;17.02;;;4.40;;
8564;SDS011;4320;51.498;6.556;2023-12-20T08:36:47;9.80;;;4.05;;
8564;SDS011;4320;51.498;6.556;2023-12-20T08:39:12;10.50;;;3.70;;
8564;SDS011;4320;51.498;6.556;2023-12-20T08:41:38;11.95;;;4.28;;
8564;SDS011;4320;51.498;6.556;2023-12-20T08:44:04;19.30;;;5.13;;
8564;SDS011;4320;51.498;6.556;2023-12-20T08:46:29;13.15;;;4.30;;
8564;SDS011;4320;51.498;6.556;2023-12-20T08:48:55;20.27;;;4.72;;
8564;SDS011;4320;51.498;6.556;2023-12-20T08:51:21;17.40;;;5.05;;
8564;SDS011;4320;51.498;6.556;2023-12-20T08:53:48;13.60;;;4.53;;
8564;SDS011;4320;51.498;6.556;2023-12-20T08:56:14;12.43;;;4.30;;
8564;SDS011;4320;51.498;6.556;2023-12-20T08:58:40;15.25;;;4.05;;
8564;SDS011;4320;51.498;6.556;2023-12-20T09:01:06;15.70;;;5.03;;
8564;SDS011;4320;51.498;6.556;2023-12-20T09:03:32;14.48;;;4.70;;
8564;SDS011;4320;51.498;6.556;2023-12-20T09:05:58;18.77;;;4.43;;
8564;SDS011;4320;51.498;6.556;2023-12-20T09:08:23;17.23;;;4.35;;
8564;SDS011;4320;51.498;6.556;2023-12-20T09:10:49;12.68;;;4.20;;
8564;SDS011;4320;51.498;6.556;2023-12-20T09:13:18;17.05;;;5.20;;
8564;SDS011;4320;51.498;6.556;2023-12-20T09:15:43;13.82;;;4.40;;
8564;SDS011;4320;51.498;6.556;2023-12-20T09:18:09;13.02;;;4.25;;
8564;SDS011;4320;51.498;6.556;2023-12-20T09:20:34;17.77;;;4.25;;
8564;SDS011;4320;51.498;6.556;2023-12-20T09:23:00;23.17;;;5.90;;
8564;SDS011;4320;51.498;6.556;2023-12-20T09:25:26;14.43;;;4.75;;
8564;SDS011;4320;51.498;6.556;2023-12-20T09:27:51;16.42;;;4.60;;
8564;SDS011;4320;51.498;6.556;2023-12-20T09:30:18;17.38;;;4.45;;
8564;SDS011;4320;51.498;6.556;2023-12-20T09:32:43;21.70;;;4.68;;
8564;SDS011;4320;51.498;6.556;2023-12-20T09:35:10;19.75;;;4.75;;
8564;SDS011;4320;51.498;6.556;2023-12-20T09:37:35;15.55;;;4.85;;
8564;SDS011;4320;51.498;6.556;2023-12-20T09:40:01;14.73;;;4.20;;
8564;SDS011;4320;51.498;6.556;2023-12-20T09:42:39;17.15;;;4.05;;
8564;SDS011;4320;51.498;6.556;2023-12-20T09:45:14;15.70;;;4.60;;
8564;SDS011;4320;51.498;6.556;2023-12-20T09:47:43;14.98;;;4.75;;
8564;SDS011;4320;51.498;6.556;2023-12-20T09:50:08;22.48;;;5.13;;
8564;SDS011;4320;51.498;6.556;2023-12-20T09:52:35;16.50;;;4.53;;
8564;SDS011;4320;51.498;6.556;2023-12-20T09:55:01;16.23;;;3.97;;
8564;SDS011;4320;51.498;6.556;2023-12-20T09:57:31;16.50;;;4.55;;
8564;SDS011;4320;51.498;6.556;2023-12-20T09:59:57;16.35;;;4.95;;
8564;SDS011;4320;51.498;6.556;2023-12-20T10:02:23;19.95;;;4.65;;
8564;SDS011;4320;51.498;6.556;2023-12-20T10:04:52;13.45;;;5.00;;
8564;SDS011;4320;51.498;6.556;2023-12-20T10:07:19;9.80;;;4.15;;
8564;SDS011;4320;51.498;6.556;2023-12-20T10:09:45;19.63;;;4.85;;
8564;SDS011;4320;51.498;6.556;2023-12-20T10:12:12;16.65;;;4.40;;
8564;SDS011;4320;51.498;6.556;2023-12-20T10:14:38;21.17;;;4.80;;
8564;SDS011;4320;51.498;6.556;2023-12-20T10:17:04;20.35;;;5.40;;
8564;SDS011;4320;51.498;6.556;2023-12-20T10:19:31;14.10;;;4.63;;
8564;SDS011;4320;51.498;6.556;2023-12-20T10:21:58;14.48;;;4.63;;
8564;SDS011;4320;51.498;6.556;2023-12-20T10:24:24;11.52;;;4.55;;
8564;SDS011;4320;51.498;6.556;2023-12-20T10:29:31;17.58;;;4.20;;
8564;SDS011;4320;51.498;6.556;2023-12-20T10:32:21;18.50;;;4.22;;
8564;SDS011;4320;51.498;6.556;2023-12-20T10:34:49;14.43;;;4.60;;
8564;SDS011;4320;51.498;6.556;2023-12-20T10:37:15;12.48;;;4.63;;
8564;SDS011;4320;51.498;6.556;2023-12-20T10:39:41;12.48;;;4.15;;
8564;SDS011;4320;51.498;6.556;2023-12-20T10:42:08;14.50;;;4.30;;
8564;SDS011;4320;51.498;6.556;2023-12-20T10:44:36;12.68;;;4.35;;
8564;SDS011;4320;51.498;6.556;2023-12-20T10:47:02;15.10;;;4.65;;
8564;SDS011;4320;51.498;6.556;2023-12-20T10:49:29;10.40;;;4.05;;
8564;SDS011;4320;51.498;6.556;2023-12-20T10:51:55;11.65;;;4.97;;
8564;SDS011;4320;51.498;6.556;2023-12-20T10:54:24;15.52;;;5.80;;
8564;SDS011;4320;51.498;6.556;2023-12-20T10:56:50;14.40;;;5.68;;
8564;SDS011;4320;51.498;6.556;2023-12-20T10:59:18;15.57;;;4.97;;
8564;SDS011;4320;51.498;6.556;2023-12-20T11:01:45;13.18;;;5.88;;
8564;SDS011;4320;51.498;6.556;2023-12-20T11:04:28;15.85;;;5.38;;
8564;SDS011;4320;51.498;6.556;2023-12-20T11:10:16;15.95;;;4.93;;
8564;SDS011;4320;51.498;6.556;2023-12-20T11:12:58;19.50;;;4.80;;
8564;SDS011;4320;51.498;6.556;2023-12-20T11:15:34;11.88;;;4.60;;
8564;SDS011;4320;51.498;6.556;2023-12-20T11:18:01;13.18;;;4.60;;
8564;SDS011;4320;51.498;6.556;2023-12-20T11:20:39;15.35;;;4.82;;
8564;SDS011;4320;51.498;6.556;2023-12-20T11:23:06;11.77;;;4.38;;
8564;SDS011;4320;51.498;6.556;2023-12-20T11:25:48;18.10;;;4.60;;
8564;SDS011;4320;51.498;6.556;2023-12-20T11:28:22;11.77;;;4.72;;
8564;SDS011;4320;51.498;6.556;2023-12-20T11:30:52;12.20;;;4.65;;
8564;SDS011;4320;51.498;6.556;2023-12-20T11:33:23;9.75;;;3.95;;
8564;SDS011;4320;51.498;6.556;2023-12-20T11:35:50;18.63;;;5.47;;
8564;SDS011;4320;51.498;6.556;2023-12-20T11:38:16;15.38;;;5.35;;
8564;SDS011;4320;51.498;6.556;2023-12-20T11:40:42;14.18;;;4.30;;
8564;SDS011;4320;51.498;6.556;2023-12-20T11:43:08;12.43;;;4.68;;
8564;SDS011;4320;51.498;6.556;2023-12-20T11:45:34;16.73;;;5.05;;
8564;SDS011;4320;51.498;6.556;2023-12-20T11:48:00;11.63;;;4.45;;
8564;SDS011;4320;51.498;6.556;2023-12-20T11:50:27;17.40;;;5.57;;
8564;SDS011;4320;51.498;6.556;2023-12-20T11:52:54;13.75;;;4.93;;
8564;SDS011;4320;51.498;6.556;2023-12-20T11:55:21;13.70;;;5.53;;
8564;SDS011;4320;51.498;6.556;2023-12-20T11:57:47;14.05;;;4.82;;
8564;SDS011;4320;51.498;6.556;2023-12-20T12:00:13;13.35;;;5.63;;
8564;SDS011;4320;51.498;6.556;2023-12-20T12:02:39;12.07;;;4.80;;
8564;SDS011;4320;51.498;6.556;2023-12-20T12:05:05;20.30;;;5.68;;
8564;SDS011;4320;51.498;6.556;2023-12-20T12:07:31;16.55;;;6.15;;
8564;SDS011;4320;51.498;6.556;2023-12-20T12:09:57;13.95;;;4.88;;
8564;SDS011;4320;51.498;6.556;2023-12-20T12:12:23;15.68;;;5.50;;
8564;SDS011;4320;51.498;6.556;2023-12-20T12:14:50;13.48;;;4.68;;
8564;SDS011;4320;51.498;6.556;2023-12-20T12:17:16;11.90;;;4.78;;
8564;SDS011;4320;51.498;6.556;2023-12-20T12:19:42;14.00;;;4.70;;
8564;SDS011;4320;51.498;6.556;2023-12-20T12:24:45;8.77;;;4.32;;
8564;SDS011;4320;51.498;6.556;2023-12-20T12:27:12;12.48;;;4.90;;
8564;SDS011;4320;51.498;6.556;2023-12-20T12:29:38;14.00;;;4.35;;
8564;SDS011;4320;51.498;6.556;2023-12-20T12:32:05;16.10;;;4.57;;
8564;SDS011;4320;51.498;6.556;2023-12-20T12:34:32;14.48;;;4.68;;
8564;SDS011;4320;51.498;6.556;2023-12-20T12:37:01;12.68;;;4.50;;
8564;SDS011;4320;51.498;6.556;2023-12-20T12:39:29;12.38;;;4.65;;
8564;SDS011;4320;51.498;6.556;2023-12-20T12:41:55;21.27;;;5.40;;
8564;SDS011;4320;51.498;6.556;2023-12-20T12:44:21;12.25;;;4.80;;
8564;SDS011;4320;51.498;6.556;2023-12-20T12:46:48;15.80;;;5.22;;
8564;SDS011;4320;51.498;6.556;2023-12-20T12:49:18;14.82;;;5.00;;
8564;SDS011;4320;51.498;6.556;2023-12-20T12:51:44;9.82;;;4.53;;
8564;SDS011;4320;51.498;6.556;2023-12-20T12:54:10;14.23;;;4.95;;
8564;SDS011;4320;51.498;6.556;2023-12-20T12:56:38;14.23;;;5.30;;
8564;SDS011;4320;51.498;6.556;2023-12-20T12:59:04;12.65;;;5.32;;
8564;SDS011;4320;51.498;6.556;2023-12-20T13:01:30;16.13;;;5.82;;
8564;SDS011;4320;51.498;6.556;2023-12-20T13:03:56;13.65;;;5.68;;
8564;SDS011;4320;51.498;6.556;2023-12-20T13:06:22;13.88;;;5.47;;
8564;SDS011;4320;51.498;6.556;2023-12-20T13:08:47;16.38;;;5.85;;
8564;SDS011;4320;51.498;6.556;2023-12-20T13:11:13;14.45;;;5.18;;
8564;SDS011;4320;51.498;6.556;2023-12-20T13:13:39;16.80;;;5.78;;
8564;SDS011;4320;51.498;6.556;2023-12-20T13:16:05;11.75;;;5.53;;
8564;SDS011;4320;51.498;6.556;2023-12-20T13:18:30;13.15;;;5.97;;
8564;SDS011;4320;51.498;6.556;2023-12-20T13:20:56;16.33;;;6.60;;
8564;SDS011;4320;51.498;6.556;2023-12-20T13:23:22;14.20;;;6.95;;
8564;SDS011;4320;51.498;6.556;2023-12-20T13:25:47;14.30;;;6.15;;
8564;SDS011;4320;51.498;6.556;2023-12-20T13:28:13;18.73;;;6.47;;
8564;SDS011;4320;51.498;6.556;2023-12-20T13:30:39;15.50;;;7.18;;
8564;SDS011;4320;51.498;6.556;2023-12-20T13:33:05;17.30;;;6.97;;
8564;SDS011;4320;51.498;6.556;2023-12-20T13:35:31;15.45;;;6.40;;
8564;SDS011;4320;51.498;6.556;2023-12-20T13:37:57;15.45;;;6.38;;
8564;SDS011;4320;51.498;6.556;2023-12-20T13:40:23;18.67;;;7.57;;
8564;SDS011;4320;51.498;6.556;2023-12-20T13:42:49;14.55;;;7.30;;
8564;SDS011;4320;51.498;6.556;2023-12-20T13:45:15;14.63;;;7.35;;
8564;SDS011;4320;51.498;6.556;2023-12-20T13:47:40;19.55;;;7.15;;
8564;SDS011;4320;51.498;6.556;2023-12-20T13:50:06;13.63;;;7.40;;
8564;SDS011;4320;51.498;6.556;2023-12-20T13:52:32;16.27;;;6.95;;
8564;SDS011;4320;51.498;6.556;2023-12-20T13:54:57;19.38;;;7.63;;
8564;SDS011;4320;51.498;6.556;2023-12-20T13:57:23;17.30;;;8.13;;
8564;SDS011;4320;51.498;6.556;2023-12-20T13:59:48;14.38;;;7.22;;
8564;SDS011;4320;51.498;6.556;2023-12-20T14:02:14;20.58;;;7.47;;
8564;SDS011;4320;51.498;6.556;2023-12-20T14:04:41;22.13;;;8.13;;
8564;SDS011;4320;51.498;6.556;2023-12-20T14:07:07;14.50;;;6.72;;
8564;SDS011;4320;51.498;6.556;2023-12-20T14:09:33;15.07;;;6.90;;
8564;SDS011;4320;51.498;6.556;2023-12-20T14:11:59;22.00;;;7.50;;
8564;SDS011;4320;51.498;6.556;2023-12-20T14:14:25;13.50;;;7.20;;
8564;SDS011;4320;51.498;6.556;2023-12-20T14:16:50;18.27;;;7.88;;
8564;SDS011;4320;51.498;6.556;2023-12-20T14:19:16;15.95;;;6.72;;
8564;SDS011;4320;51.498;6.556;2023-12-20T14:21:41;15.60;;;6.97;;
8564;SDS011;4320;51.498;6.556;2023-12-20T14:24:07;23.00;;;6.70;;
8564;SDS011;4320;51.498;6.556;2023-12-20T14:26:33;20.70;;;6.95;;
8564;SDS011;4320;51.498;6.556;2023-12-20T14:28:58;13.98;;;6.20;;
8564;SDS011;4320;51.498;6.556;2023-12-20T14:31:24;14.50;;;6.55;;
8564;SDS011;4320;51.498;6.556;2023-12-20T14:33:50;17.75;;;6.90;;
8564;SDS011;4320;51.498;6.556;2023-12-20T14:36:18;17.25;;;6.65;;
8564;SDS011;4320;51.498;6.556;2023-12-20T14:38:45;17.48;;;6.45;;
8564;SDS011;4320;51.498;6.556;2023-12-20T14:41:12;12.93;;;6.13;;
8564;SDS011;4320;51.498;6.556;2023-12-20T14:43:37;14.70;;;6.38;;
8564;SDS011;4320;51.498;6.556;2023-12-20T14:46:03;18.10;;;6.45;;
8564;SDS011;4320;51.498;6.556;2023-12-20T14:48:30;14.35;;;6.50;;
8564;SDS011;4320;51.498;6.556;2023-12-20T14:50:57;17.17;;;5.65;;
8564;SDS011;4320;51.498;6.556;2023-12-20T14:53:24;16.23;;;6.07;;
8564;SDS011;4320;51.498;6.556;2023-12-20T14:55:50;15.85;;;5.45;;
8564;SDS011;4320;51.498;6.556;2023-12-20T14:58:16;11.82;;;5.53;;
8564;SDS011;4320;51.498;6.556;2023-12-20T15:00:42;12.13;;;5.53;;
8564;SDS011;4320;51.498;6.556;2023-12-20T15:03:08;14.90;;;5.93;;
8564;SDS011;4320;51.498;6.556;2023-12-20T15:05:34;12.95;;;5.75;;